Terminal Aerodrome Forecast
Issued by NWS

Home | Current Version | Previous Version | Text Only | Print | Product List | Glossary On
Versions: 1 2 3 4 5 6 7 8 9 10 11 12
000
FTUS43 KFGF 260500
TAFBJI
TAF
KBJI 260520Z 2606/2706 VRB03KT P6SM SKC
     FM261600 13008KT P6SM BKN250
     FM261900 13012KT P6SM BKN250
     FM262100 13012G17KT P6SM BKN120
     FM262300 13009KT P6SM SCT250=

USA.gov is the U.S. government's official web portal to all federal, state and local government web resources and services.